createdAt,value
2023-01-26T00:00:42.212Z,22.50
2023-01-26T00:03:44.377Z,21.50
2023-01-26T00:06:45.784Z,20.90
2023-01-26T00:09:47.186Z,25.13
2023-01-26T00:12:48.705Z,23.43
2023-01-26T00:15:50.138Z,23.37
2023-01-26T00:18:51.622Z,25.70
2023-01-26T00:21:53.007Z,26.00
2023-01-26T00:24:54.414Z,25.13
2023-01-26T00:27:57.258Z,26.03
2023-01-26T00:31:06.195Z,25.23
2023-01-26T00:34:07.615Z,29.73
2023-01-26T00:37:09.019Z,24.50
2023-01-26T00:40:11.404Z,25.87
2023-01-26T00:43:13.084Z,26.67
2023-01-26T00:46:14.827Z,29.03
2023-01-26T00:49:16.221Z,31.67
2023-01-26T00:52:17.821Z,26.43
2023-01-26T00:55:19.613Z,28.73
2023-01-26T00:58:21.007Z,28.40
2023-01-26T01:01:24.220Z,29.37
2023-01-26T01:04:25.643Z,29.57
2023-01-26T01:07:27.403Z,30.90
2023-01-26T01:10:29.133Z,30.57
2023-01-26T01:13:30.646Z,30.20
2023-01-26T01:16:32.037Z,28.87
2023-01-26T01:19:33.443Z,32.00
2023-01-26T01:22:36.105Z,29.93
2023-01-26T01:25:37.479Z,33.90
2023-01-26T01:28:39.931Z,31.10
2023-01-26T01:31:43.113Z,34.43
2023-01-26T01:34:47.028Z,31.33
2023-01-26T01:37:48.511Z,33.50
2023-01-26T01:40:49.910Z,36.77
2023-01-26T01:43:51.701Z,31.63
2023-01-26T01:46:58.216Z,33.60
2023-01-26T01:49:59.610Z,33.03
2023-01-26T01:53:01.541Z,32.27
2023-01-26T01:56:08.196Z,30.83
2023-01-26T01:59:11.476Z,30.67
2023-01-26T02:02:14.562Z,31.73
2023-01-26T02:05:32.273Z,34.20
2023-01-26T02:08:38.119Z,31.70
2023-01-26T02:11:44.907Z,32.47
2023-01-26T02:14:46.528Z,32.07
2023-01-26T02:17:52.554Z,31.87
2023-01-26T02:20:59.032Z,33.80
2023-01-26T02:24:20.146Z,33.70
2023-01-26T02:27:21.647Z,35.23
2023-01-26T02:30:27.133Z,32.37
2023-01-26T02:33:31.286Z,29.40
2023-01-26T02:36:35.577Z,34.10
2023-01-26T02:39:53.634Z,32.97
2023-01-26T02:42:55.310Z,29.63
2023-01-26T02:45:56.809Z,34.20
2023-01-26T02:49:17.117Z,26.83
2023-01-26T02:52:21.681Z,34.33
2023-01-26T02:55:29.781Z,31.23
2023-01-26T02:58:32.279Z,32.33
2023-01-26T03:01:33.703Z,30.40
2023-01-26T03:04:35.090Z,29.60
2023-01-26T03:07:36.575Z,30.60
2023-01-26T03:10:38.436Z,33.80
2023-01-26T03:13:41.136Z,35.40
2023-01-26T03:16:42.852Z,31.60
2023-01-26T03:20:03.045Z,30.80
2023-01-26T03:23:26.861Z,30.13
2023-01-26T03:26:47.073Z,33.77
2023-01-26T03:29:48.693Z,31.80
2023-01-26T03:32:50.107Z,33.27
2023-01-26T03:35:53.999Z,33.97
2023-01-26T03:38:56.975Z,34.67
2023-01-26T03:42:17.681Z,38.60
2023-01-26T03:45:37.385Z,34.43
2023-01-26T03:48:57.657Z,33.20
2023-01-26T03:52:18.280Z,33.43
2023-01-26T03:55:38.617Z,32.37
2023-01-26T03:58:40.072Z,33.53
2023-01-26T04:02:02.595Z,33.07
2023-01-26T04:05:23.797Z,32.23
2023-01-26T04:08:30.341Z,31.97
2023-01-26T04:11:34.239Z,31.40
2023-01-26T04:14:54.358Z,32.10
2023-01-26T04:18:17.836Z,32.37
2023-01-26T04:21:35.667Z,30.47
2023-01-26T04:24:44.418Z,34.40
2023-01-26T04:27:46.495Z,30.73
2023-01-26T04:30:49.500Z,29.47
2023-01-26T04:33:51.309Z,28.40
2023-01-26T04:36:52.908Z,33.90
2023-01-26T04:39:57.462Z,30.47
2023-01-26T04:42:59.369Z,34.23
2023-01-26T04:46:03.259Z,30.17
2023-01-26T04:49:05.728Z,29.40
2023-01-26T04:52:08.662Z,28.00
2023-01-26T04:55:10.896Z,28.60
2023-01-26T04:58:14.628Z,32.07
2023-01-26T05:01:17.455Z,30.60
2023-01-26T05:04:19.021Z,27.87
2023-01-26T05:07:21.611Z,31.07
2023-01-26T05:10:23.373Z,27.50
2023-01-26T05:13:32.944Z,28.17
2023-01-26T05:16:48.305Z,25.93
2023-01-26T05:20:00.259Z,24.23
2023-01-26T05:23:15.829Z,25.37
2023-01-26T05:26:35.523Z,24.63
2023-01-26T05:29:40.264Z,25.77
2023-01-26T05:32:42.135Z,22.20
2023-01-26T05:35:43.608Z,24.33
2023-01-26T05:38:45.405Z,20.33
2023-01-26T05:41:46.864Z,24.30
2023-01-26T05:45:17.975Z,19.90
2023-01-26T05:48:19.736Z,23.70
2023-01-26T05:51:25.407Z,22.27
2023-01-26T05:54:26.859Z,24.17
2023-01-26T05:57:29.397Z,21.37
2023-01-26T06:00:38.472Z,22.93
2023-01-26T06:03:45.533Z,21.93
2023-01-26T06:06:47.026Z,24.37
2023-01-26T06:09:56.123Z,21.37
2023-01-26T06:13:15.548Z,22.63
2023-01-26T06:16:24.935Z,19.77
2023-01-26T06:19:26.441Z,23.83
2023-01-26T06:22:32.409Z,21.23
2023-01-26T06:25:34.354Z,24.70
2023-01-26T06:28:36.665Z,20.87
2023-01-26T06:31:38.160Z,19.97
2023-01-26T06:34:41.535Z,23.43
2023-01-26T06:37:43.337Z,21.80
2023-01-26T06:40:44.754Z,18.40
2023-01-26T06:43:48.336Z,23.93
2023-01-26T06:46:49.811Z,22.43
2023-01-26T06:49:51.419Z,21.83
2023-01-26T06:52:58.820Z,21.30
2023-01-26T06:56:28.936Z,18.83
2023-01-26T07:00:10.730Z,20.80
2023-01-26T07:03:29.227Z,19.00
2023-01-26T07:06:30.713Z,18.80
2023-01-26T07:09:32.196Z,22.67
2023-01-26T07:12:40.640Z,19.03
2023-01-26T07:15:42.117Z,21.40
2023-01-26T07:18:43.561Z,17.93
2023-01-26T07:21:44.990Z,19.27
2023-01-26T07:24:46.388Z,16.73
2023-01-26T07:27:47.808Z,16.97
2023-01-26T07:30:49.243Z,16.70
2023-01-26T07:33:50.667Z,16.97
2023-01-26T07:36:52.965Z,16.70
2023-01-26T07:39:54.457Z,15.40
2023-01-26T07:42:56.783Z,17.10
2023-01-26T07:46:16.549Z,17.77
2023-01-26T07:49:17.990Z,18.77
2023-01-26T07:52:19.407Z,15.80
2023-01-26T07:55:21.391Z,15.87
2023-01-26T07:58:22.915Z,15.10
2023-01-26T08:01:24.564Z,13.07
2023-01-26T08:04:26.088Z,14.17
2023-01-26T08:07:27.466Z,10.60
2023-01-26T08:10:31.530Z,14.90
2023-01-26T08:13:35.906Z,11.87
2023-01-26T08:16:37.641Z,13.97
2023-01-26T08:19:39.164Z,13.77
2023-01-26T08:22:40.582Z,12.47
2023-01-26T08:25:42.044Z,13.47
2023-01-26T08:28:44.076Z,13.47
2023-01-26T08:31:45.510Z,12.70
2023-01-26T08:34:46.936Z,12.93
2023-01-26T08:37:48.383Z,12.53
2023-01-26T08:40:53.625Z,11.87
2023-01-26T08:43:55.066Z,13.50
2023-01-26T08:46:56.463Z,12.17
2023-01-26T08:49:57.883Z,14.33
2023-01-26T08:52:59.261Z,14.03
2023-01-26T08:56:09.616Z,13.67
2023-01-26T08:59:11.117Z,17.37
2023-01-26T09:02:12.678Z,12.07
2023-01-26T09:05:14.288Z,14.90
2023-01-26T09:08:15.721Z,15.13
2023-01-26T09:11:17.125Z,13.10
2023-01-26T09:14:18.515Z,14.20
2023-01-26T09:17:19.903Z,12.20
2023-01-26T09:20:22.440Z,14.70
2023-01-26T09:23:23.823Z,13.93
2023-01-26T09:26:25.274Z,11.77
2023-01-26T09:29:26.665Z,10.50
2023-01-26T09:32:28.304Z,11.20
2023-01-26T09:35:30.610Z,10.63
2023-01-26T09:38:32.560Z,11.63
2023-01-26T09:41:52.547Z,12.10
2023-01-26T09:45:17.307Z,12.37
2023-01-26T09:49:17.482Z,12.80
2023-01-26T09:52:33.464Z,13.57
2023-01-26T09:55:35.318Z,11.90
2023-01-26T09:58:40.851Z,11.80
2023-01-26T10:01:51.149Z,9.37
2023-01-26T10:04:57.282Z,8.90
2023-01-26T10:08:00.333Z,8.47
2023-01-26T10:11:18.804Z,9.10
2023-01-26T10:14:42.487Z,8.13
2023-01-26T10:17:46.345Z,8.50
2023-01-26T10:20:54.715Z,7.30
2023-01-26T10:24:00.670Z,8.10
2023-01-26T10:27:02.164Z,9.37
2023-01-26T10:30:03.931Z,8.23
2023-01-26T10:33:16.380Z,12.77
2023-01-26T10:36:17.912Z,8.43
2023-01-26T10:39:19.510Z,8.53
2023-01-26T10:42:30.237Z,7.37
2023-01-26T10:45:33.644Z,7.47
2023-01-26T10:48:35.310Z,8.07
2023-01-26T10:51:44.447Z,9.10
2023-01-26T10:54:46.405Z,8.17
2023-01-26T10:57:47.913Z,10.43
2023-01-26T11:00:55.859Z,8.50
2023-01-26T11:04:12.149Z,10.13
2023-01-26T11:07:26.980Z,7.10
2023-01-26T11:10:38.929Z,8.60
2023-01-26T11:13:40.317Z,7.93
2023-01-26T11:16:47.578Z,7.47
2023-01-26T11:20:01.576Z,7.87
2023-01-26T11:23:05.869Z,8.13
2023-01-26T11:26:39.382Z,9.57
2023-01-26T11:29:55.943Z,8.63
2023-01-26T11:33:20.641Z,8.03
2023-01-26T11:36:47.965Z,8.20
2023-01-26T11:39:52.263Z,9.77
2023-01-26T11:42:53.558Z,8.53
2023-01-26T11:46:30.617Z,10.20
2023-01-26T11:49:58.096Z,7.90
2023-01-26T11:53:17.273Z,8.20
2023-01-26T11:56:42.976Z,7.20
2023-01-26T11:59:48.074Z,7.40
2023-01-26T12:02:59.286Z,6.77
2023-01-26T12:06:07.136Z,8.10
2023-01-26T12:09:18.818Z,9.40
2023-01-26T12:12:40.691Z,7.87
2023-01-26T12:15:48.938Z,7.17
2023-01-26T12:19:11.007Z,8.67
2023-01-26T12:22:20.404Z,12.20
2023-01-26T12:25:39.255Z,10.10
2023-01-26T12:28:59.384Z,9.43
2023-01-26T12:32:16.062Z,8.93
2023-01-26T12:35:31.236Z,8.20
2023-01-26T12:39:04.465Z,9.20
2023-01-26T12:42:11.942Z,7.70
2023-01-26T12:45:35.441Z,9.53
2023-01-26T12:48:44.681Z,8.23
2023-01-26T12:51:52.839Z,8.17
2023-01-26T12:55:06.542Z,9.57
2023-01-26T12:58:22.823Z,9.77
2023-01-26T13:01:26.741Z,7.27
2023-01-26T13:04:28.515Z,9.13
2023-01-26T13:07:39.077Z,8.27
2023-01-26T13:10:48.229Z,9.27
2023-01-26T13:13:53.658Z,7.70
2023-01-26T13:16:55.594Z,16.47
2023-01-26T13:19:59.811Z,8.10
2023-01-26T13:23:01.361Z,6.70
2023-01-26T13:26:17.493Z,7.87
2023-01-26T13:29:25.033Z,9.07
2023-01-26T13:32:26.441Z,9.97
2023-01-26T13:35:30.352Z,9.13
2023-01-26T13:38:52.828Z,7.63
2023-01-26T13:41:54.783Z,7.97
2023-01-26T13:45:15.047Z,8.47
2023-01-26T13:48:34.864Z,7.87
2023-01-26T13:51:36.914Z,8.10
2023-01-26T13:54:42.028Z,6.83
2023-01-26T13:57:43.433Z,8.83
2023-01-26T14:01:02.248Z,8.20
2023-01-26T14:04:06.108Z,7.73
2023-01-26T14:07:12.175Z,9.53
2023-01-26T14:10:19.720Z,8.93
2023-01-26T14:13:32.130Z,11.07
2023-01-26T14:16:37.539Z,10.83
2023-01-26T14:19:42.189Z,12.90
2023-01-26T14:22:43.669Z,11.40
2023-01-26T14:25:57.181Z,12.73
2023-01-26T14:29:00.457Z,11.60
2023-01-26T14:32:01.939Z,12.67
2023-01-26T14:35:03.668Z,10.90
2023-01-26T14:38:12.000Z,13.97
2023-01-26T14:41:23.295Z,15.33
2023-01-26T14:44:24.820Z,13.30
2023-01-26T14:47:33.066Z,11.63
2023-01-26T14:50:35.736Z,12.00
2023-01-26T14:53:37.422Z,13.93
2023-01-26T14:56:40.528Z,14.20
2023-01-26T14:59:42.088Z,13.63
2023-01-26T15:02:47.218Z,11.97
2023-01-26T15:05:48.615Z,12.20
2023-01-26T15:09:05.422Z,12.33
2023-01-26T15:12:16.718Z,11.73
2023-01-26T15:15:20.172Z,13.20
2023-01-26T15:18:21.830Z,11.50
2023-01-26T15:21:32.730Z,13.67
2023-01-26T15:24:34.269Z,12.90
2023-01-26T15:27:36.879Z,12.77
2023-01-26T15:30:38.717Z,11.27
2023-01-26T15:33:46.027Z,13.10
2023-01-26T15:36:49.751Z,12.93
2023-01-26T15:39:51.236Z,12.07
2023-01-26T15:43:17.866Z,17.83
2023-01-26T15:46:19.289Z,11.30
2023-01-26T15:49:22.863Z,12.47
2023-01-26T15:52:30.060Z,13.57
2023-01-26T15:55:33.193Z,11.43
2023-01-26T15:58:36.604Z,11.97
2023-01-26T16:01:38.028Z,11.37
2023-01-26T16:04:39.417Z,12.80
2023-01-26T16:07:40.825Z,10.73
2023-01-26T16:10:42.664Z,10.90
2023-01-26T16:14:01.150Z,19.20
2023-01-26T16:17:12.420Z,11.20
2023-01-26T16:20:13.874Z,11.47
2023-01-26T16:23:21.434Z,12.70
2023-01-26T16:26:22.867Z,11.23
2023-01-26T16:29:24.291Z,11.87
2023-01-26T16:32:30.872Z,11.20
2023-01-26T16:35:32.418Z,12.13
2023-01-26T16:38:33.909Z,11.57
2023-01-26T16:41:35.501Z,12.83
2023-01-26T16:44:36.914Z,12.30
2023-01-26T16:47:38.352Z,12.07
2023-01-26T16:50:40.896Z,13.10
2023-01-26T16:53:42.485Z,10.13
2023-01-26T16:56:44.250Z,11.87
2023-01-26T16:59:45.661Z,11.27
2023-01-26T17:02:49.487Z,9.93
2023-01-26T17:05:50.875Z,13.37
2023-01-26T17:08:52.717Z,12.10
2023-01-26T17:11:54.115Z,12.10
2023-01-26T17:14:55.538Z,10.73
2023-01-26T17:17:57.294Z,12.13
2023-01-26T17:21:02.566Z,12.50
2023-01-26T17:24:04.389Z,11.33
2023-01-26T17:27:05.947Z,12.37
2023-01-26T17:30:08.863Z,12.17
2023-01-26T17:33:10.255Z,11.60
2023-01-26T17:36:12.548Z,12.13
2023-01-26T17:39:14.643Z,13.03
2023-01-26T17:42:16.113Z,12.10
2023-01-26T17:45:17.564Z,16.37
2023-01-26T17:48:18.963Z,14.90
2023-01-26T17:51:21.485Z,12.93
2023-01-26T17:54:22.989Z,12.70
2023-01-26T17:57:24.401Z,12.13
2023-01-26T18:00:25.817Z,12.47
2023-01-26T18:03:27.342Z,12.93
2023-01-26T18:06:29.427Z,11.90
2023-01-26T18:09:31.236Z,13.80
2023-01-26T18:12:33.199Z,15.20
2023-01-26T18:15:36.901Z,14.53
2023-01-26T18:18:38.448Z,14.47
2023-01-26T18:21:39.899Z,18.17
2023-01-26T18:24:41.315Z,22.27
2023-01-26T18:27:43.242Z,14.97
2023-01-26T18:30:44.907Z,16.10
2023-01-26T18:33:46.569Z,13.80
2023-01-26T18:36:48.148Z,14.53
2023-01-26T18:39:49.583Z,14.30
2023-01-26T18:42:54.312Z,15.73
2023-01-26T18:45:55.764Z,14.70
2023-01-26T18:49:01.062Z,13.97
2023-01-26T18:52:02.708Z,12.73
2023-01-26T18:55:04.524Z,11.87
2023-01-26T18:58:06.285Z,13.30
2023-01-26T19:01:12.487Z,15.07
2023-01-26T19:04:15.007Z,13.10
2023-01-26T19:07:17.402Z,15.80
2023-01-26T19:10:18.982Z,13.30
2023-01-26T19:13:20.472Z,12.10
2023-01-26T19:16:24.317Z,13.17
2023-01-26T19:19:25.793Z,11.40
2023-01-26T19:22:27.223Z,13.07
2023-01-26T19:25:28.642Z,11.40
2023-01-26T19:28:30.137Z,13.57
2023-01-26T19:31:32.422Z,11.10
2023-01-26T19:34:34.966Z,11.47
2023-01-26T19:37:36.365Z,12.20
2023-01-26T19:40:37.847Z,14.97
2023-01-26T19:43:39.595Z,11.20
2023-01-26T19:46:41.012Z,11.70
2023-01-26T19:49:42.411Z,12.50
2023-01-26T19:52:43.886Z,12.13
2023-01-26T19:55:45.277Z,10.63
2023-01-26T19:58:51.913Z,10.87
2023-01-26T20:01:53.406Z,11.03
2023-01-26T20:04:54.805Z,11.33
2023-01-26T20:07:56.206Z,10.43
2023-01-26T20:11:08.440Z,11.13
2023-01-26T20:14:11.108Z,11.57
2023-01-26T20:17:12.636Z,11.80
2023-01-26T20:20:14.204Z,14.33
2023-01-26T20:23:15.613Z,12.07
2023-01-26T20:26:17.816Z,12.97
2023-01-26T20:29:20.657Z,14.17
2023-01-26T20:32:22.166Z,21.33
2023-01-26T20:35:23.617Z,19.97
2023-01-26T20:38:25.155Z,14.83
2023-01-26T20:41:29.270Z,19.00
2023-01-26T20:44:31.101Z,22.67
2023-01-26T20:47:34.083Z,21.80
2023-01-26T20:50:39.949Z,19.03
2023-01-26T20:53:42.073Z,15.10
2023-01-26T20:56:45.636Z,18.37
2023-01-26T20:59:47.162Z,19.20
2023-01-26T21:02:48.607Z,16.33
2023-01-26T21:05:50.027Z,16.20
2023-01-26T21:08:57.290Z,16.40
2023-01-26T21:11:58.726Z,16.83
2023-01-26T21:15:00.168Z,20.53
2023-01-26T21:18:01.576Z,17.27
2023-01-26T21:21:06.846Z,18.83
2023-01-26T21:24:08.317Z,17.50
2023-01-26T21:27:09.799Z,20.03
2023-01-26T21:30:12.080Z,18.53
2023-01-26T21:33:13.735Z,17.50
2023-01-26T21:36:17.676Z,19.43
2023-01-26T21:39:22.025Z,16.03
2023-01-26T21:42:23.580Z,17.60
2023-01-26T21:45:43.881Z,18.43
2023-01-26T21:48:45.312Z,18.70
2023-01-26T21:52:05.819Z,18.20
2023-01-26T21:55:07.534Z,21.27
2023-01-26T21:58:27.915Z,20.10
2023-01-26T22:01:31.466Z,24.77
2023-01-26T22:04:32.944Z,22.80
2023-01-26T22:07:34.403Z,26.93
2023-01-26T22:10:35.804Z,20.77
2023-01-26T22:13:37.237Z,22.37
2023-01-26T22:16:38.839Z,24.83
2023-01-26T22:19:40.260Z,25.60
2023-01-26T22:22:41.657Z,24.33
2023-01-26T22:25:43.054Z,22.87
2023-01-26T22:28:49.965Z,23.47
2023-01-26T22:31:51.877Z,25.73
2023-01-26T22:34:53.416Z,23.43
2023-01-26T22:37:56.463Z,24.40
2023-01-26T22:40:58.829Z,22.57
2023-01-26T22:44:00.561Z,23.10
2023-01-26T22:47:02.019Z,22.33
2023-01-26T22:50:03.784Z,24.53
2023-01-26T22:53:05.197Z,26.27
2023-01-26T22:56:08.154Z,25.40
2023-01-26T22:59:09.637Z,23.17
2023-01-26T23:02:11.169Z,23.00
2023-01-26T23:05:12.593Z,23.57
2023-01-26T23:08:13.981Z,25.77
2023-01-26T23:11:19.924Z,26.07
2023-01-26T23:14:21.332Z,24.07
2023-01-26T23:17:22.725Z,23.87
2023-01-26T23:20:24.189Z,26.03
2023-01-26T23:23:26.458Z,24.50
2023-01-26T23:26:27.950Z,24.93
2023-01-26T23:29:29.381Z,27.97
2023-01-26T23:32:30.761Z,26.80
2023-01-26T23:35:32.162Z,23.97
2023-01-26T23:38:34.122Z,25.93
2023-01-26T23:41:35.567Z,25.77
2023-01-26T23:44:36.958Z,24.67
2023-01-26T23:47:38.428Z,24.43
2023-01-26T23:50:39.958Z,25.57
2023-01-26T23:53:41.366Z,25.60
2023-01-26T23:56:42.818Z,28.50
2023-01-26T23:59:44.191Z,25.43
